createdAt,value
2019-02-18T05:13:39.152Z,7.63
2019-02-18T05:16:27.048Z,7.60
2019-02-18T05:19:22.971Z,8.13
2019-02-18T05:22:10.416Z,7.67
2019-02-18T05:25:02.489Z,7.63
2019-02-18T05:27:50.665Z,8.13
2019-02-18T05:30:44.926Z,7.90
2019-02-18T05:33:33.049Z,8.13
2019-02-18T05:36:21.237Z,7.27
2019-02-18T05:39:17.475Z,7.17
2019-02-18T05:41:58.130Z,7.50
2019-02-18T05:44:47.593Z,7.70
2019-02-18T10:51:20.000Z,2.37
2019-02-18T11:01:21.838Z,2.23
2019-02-18T11:07:45.084Z,3.27
2019-02-18T11:10:41.518Z,3.60
2019-02-18T11:13:29.265Z,3.90
2019-02-18T11:16:27.033Z,3.90
2019-02-18T11:19:17.715Z,4.10
2019-02-18T11:22:09.273Z,4.63
2019-02-18T11:32:23.026Z,5.73
2019-02-18T11:35:15.975Z,5.80
2019-02-18T11:55:38.945Z,6.77
2019-02-18T11:58:56.782Z,7.03
2019-02-18T12:01:44.821Z,7.30
2019-02-18T12:04:40.691Z,7.93
2019-02-18T12:07:30.350Z,7.90
2019-02-18T12:10:18.707Z,8.40
2019-02-18T12:13:06.909Z,8.03
2019-02-18T12:15:54.867Z,8.67
2019-02-18T12:18:44.428Z,9.80
2019-02-18T12:21:32.639Z,9.27
2019-02-18T12:24:21.003Z,10.53
2019-02-18T12:27:13.957Z,10.53
2019-02-18T12:30:02.398Z,10.30
2019-02-18T12:32:52.185Z,11.27
2019-02-18T12:35:43.654Z,11.97
2019-02-18T12:38:34.997Z,11.73
2019-02-18T12:41:22.892Z,11.17
2019-02-18T12:44:12.049Z,12.03
2019-02-18T12:46:59.985Z,12.23
2019-02-18T12:49:51.093Z,12.00
2019-02-18T12:52:42.095Z,12.37
2019-02-18T12:58:28.686Z,11.83
2019-02-18T13:01:17.324Z,12.30
2019-02-18T13:04:05.451Z,12.93
2019-02-18T13:06:53.542Z,13.20
2019-02-18T13:09:41.963Z,13.27
2019-02-18T13:12:29.917Z,13.20
2019-02-18T13:15:19.099Z,13.10
2019-02-18T13:18:07.161Z,13.73
2019-02-18T13:20:57.353Z,13.00
2019-02-18T13:23:46.380Z,13.43
2019-02-18T13:26:34.471Z,14.20
2019-02-18T13:29:22.655Z,14.53
2019-02-18T13:32:12.025Z,14.20
2019-02-18T13:35:00.282Z,14.50
2019-02-18T13:37:49.852Z,15.57
2019-02-18T13:40:37.871Z,14.93
2019-02-18T13:43:25.981Z,14.07
2019-02-18T13:46:13.824Z,14.97
2019-02-18T13:49:02.553Z,14.80
2019-02-18T13:51:56.405Z,14.80
2019-02-18T13:54:42.730Z,14.40
2019-02-18T13:57:46.132Z,16.00
2019-02-18T14:00:35.365Z,15.60
2019-02-18T14:03:25.317Z,15.70
2019-02-18T14:06:18.531Z,15.30
2019-02-18T14:09:06.945Z,16.33
2019-02-18T14:11:56.069Z,15.40
2019-02-18T14:14:45.340Z,15.23
2019-02-18T14:17:36.256Z,15.57
2019-02-18T14:20:25.207Z,15.93
2019-02-18T14:23:16.007Z,16.10
2019-02-18T14:26:18.492Z,15.87
2019-02-18T14:32:22.640Z,16.47
2019-02-18T14:35:13.371Z,16.47
2019-02-18T14:38:02.793Z,16.23
2019-02-18T14:40:52.270Z,16.13
2019-02-18T14:43:58.000Z,17.17
2019-02-18T14:46:46.133Z,15.97
2019-02-18T14:49:36.115Z,17.93
2019-02-18T14:52:39.951Z,17.47
2019-02-18T14:55:28.665Z,18.43
2019-02-18T14:58:17.315Z,17.90
2019-02-18T15:01:07.654Z,17.13
2019-02-18T15:03:57.109Z,18.50
2019-02-18T15:06:49.556Z,17.83
2019-02-18T15:09:38.340Z,17.83
2019-02-18T15:12:37.550Z,17.13
2019-02-18T15:15:50.033Z,16.40
2019-02-18T15:18:38.547Z,17.60
2019-02-18T15:27:59.468Z,17.03
2019-02-18T15:30:59.577Z,17.50
2019-02-18T15:33:49.064Z,17.40
2019-02-18T15:36:41.351Z,17.67
2019-02-18T15:39:32.292Z,18.13
2019-02-18T15:42:21.577Z,17.47
2019-02-18T15:45:15.966Z,16.63
2019-02-18T15:48:33.175Z,16.90
2019-02-18T15:54:17.314Z,17.43
2019-02-18T15:57:21.724Z,16.97
2019-02-18T16:00:24.577Z,16.70
2019-02-18T16:03:22.771Z,17.33
2019-02-18T16:06:12.817Z,16.20
2019-02-18T16:09:01.483Z,18.07
2019-02-18T16:11:50.109Z,16.37
2019-02-18T16:14:39.413Z,17.07
2019-02-18T16:17:27.814Z,17.47
2019-02-18T16:20:25.471Z,16.53
2019-02-18T16:23:20.548Z,15.43
2019-02-18T16:26:16.668Z,16.27
2019-02-18T16:29:05.053Z,15.87
2019-02-18T16:31:55.179Z,16.33
2019-02-18T16:34:43.206Z,15.80
2019-02-18T16:37:31.190Z,16.77
2019-02-18T16:40:19.910Z,16.77
2019-02-18T16:43:08.979Z,17.03
2019-02-18T16:46:04.916Z,15.70
2019-02-18T16:48:57.622Z,16.00
2019-02-18T16:51:45.742Z,16.17
2019-02-18T16:54:34.829Z,16.30
2019-02-18T16:57:22.847Z,16.83
2019-02-18T17:00:34.583Z,15.40
2019-02-18T17:03:23.583Z,16.70
2019-02-18T17:09:37.211Z,16.60
2019-02-18T17:12:29.915Z,17.17
2019-02-18T17:46:01.624Z,16.70
2019-02-18T17:55:10.982Z,16.60
2019-02-18T17:58:03.019Z,16.70
2019-02-18T18:00:55.885Z,16.23
2019-02-18T18:03:52.103Z,16.27
2019-02-18T18:06:40.991Z,16.33
2019-02-18T18:09:30.004Z,16.23
2019-02-18T18:12:19.000Z,15.33
2019-02-18T18:15:07.079Z,15.50
2019-02-18T18:17:57.096Z,15.70
2019-02-18T18:20:45.631Z,15.30
2019-02-18T18:23:33.536Z,15.53
2019-02-18T18:26:26.375Z,14.67
2019-02-18T18:29:15.205Z,15.33
2019-02-18T18:32:02.969Z,14.80
2019-02-18T18:34:51.950Z,15.43
2019-02-18T18:37:48.244Z,15.07
2019-02-18T18:40:36.798Z,14.63
2019-02-18T18:43:33.431Z,15.23
2019-02-18T18:46:22.213Z,14.67
2019-02-18T18:49:10.904Z,15.07
2019-02-18T18:51:59.903Z,15.17
2019-02-18T18:54:53.284Z,14.37
2019-02-18T18:57:41.629Z,14.20
2019-02-18T19:00:35.815Z,14.83
2019-02-18T19:03:28.524Z,14.23
2019-02-18T19:06:17.017Z,15.23
2019-02-18T19:09:06.147Z,14.80
2019-02-18T19:11:55.777Z,14.40
2019-02-18T19:14:44.610Z,14.17
2019-02-18T19:17:36.422Z,15.20
2019-02-18T19:20:24.846Z,14.47
2019-02-18T19:23:12.569Z,15.20
2019-02-18T19:26:01.404Z,14.80
2019-02-18T19:28:52.110Z,14.83
2019-02-18T19:31:40.518Z,14.20
2019-02-18T19:34:28.973Z,14.90
2019-02-18T19:37:19.658Z,14.70
2019-02-18T19:40:08.542Z,18.63
2019-02-18T19:42:57.328Z,13.90
2019-02-18T19:45:46.023Z,14.80
2019-02-18T19:48:59.946Z,15.03
2019-02-18T19:51:48.880Z,14.43
2019-02-18T19:54:48.068Z,14.77
2019-02-18T19:57:37.448Z,14.53
2019-02-18T20:00:28.181Z,14.43
2019-02-18T20:03:22.304Z,14.53
2019-02-18T20:06:10.844Z,14.40
2019-02-18T20:09:08.643Z,14.70
2019-02-18T20:12:00.211Z,14.77
2019-02-18T20:14:48.937Z,13.37
2019-02-18T20:17:37.224Z,14.93
2019-02-18T20:20:25.846Z,14.07
2019-02-18T20:23:14.054Z,14.43
2019-02-18T20:26:03.033Z,13.93
2019-02-18T20:28:51.480Z,15.40
2019-02-18T20:31:39.598Z,14.53
2019-02-18T20:34:40.522Z,14.57
2019-02-18T20:37:28.979Z,15.40
2019-02-18T20:40:17.803Z,14.53
2019-02-18T20:43:06.475Z,14.30
2019-02-18T20:46:01.881Z,15.10
2019-02-18T20:48:51.714Z,15.07
2019-02-18T20:51:40.520Z,14.87
2019-02-18T20:54:29.343Z,14.03
2019-02-18T20:57:17.963Z,14.97
2019-02-18T21:00:09.649Z,14.87
2019-02-18T21:03:00.418Z,14.70
2019-02-18T21:05:48.839Z,14.37
2019-02-18T21:08:46.161Z,14.03
2019-02-18T21:11:36.152Z,14.63
2019-02-18T21:14:24.554Z,15.23
2019-02-18T21:17:12.266Z,14.57
2019-02-18T21:20:00.431Z,14.70
2019-02-18T21:22:48.646Z,14.63
2019-02-18T21:25:36.608Z,14.23
2019-02-18T21:28:25.125Z,14.50
2019-02-18T21:31:13.422Z,14.60
2019-02-18T21:34:01.697Z,14.33
2019-02-18T21:36:53.345Z,14.50
2019-02-18T21:39:41.947Z,14.77
2019-02-18T21:42:29.921Z,15.00
2019-02-18T21:45:18.237Z,14.53
2019-02-18T21:48:06.321Z,14.50
2019-02-18T21:50:54.448Z,14.47
2019-02-18T21:53:42.994Z,14.07
2019-02-18T21:56:31.092Z,13.43
2019-02-18T21:59:19.286Z,13.97
2019-02-18T22:02:07.859Z,14.30
2019-02-18T22:04:56.180Z,13.87
2019-02-18T22:07:46.373Z,14.03
2019-02-18T22:10:34.742Z,13.33
2019-02-18T22:13:22.829Z,13.53
2019-02-18T22:16:14.222Z,13.20
2019-02-18T22:19:04.137Z,14.33
2019-02-18T22:21:53.548Z,12.40
2019-02-18T22:24:41.201Z,13.33
2019-02-18T22:27:31.117Z,13.47
2019-02-18T22:30:24.879Z,14.00
2019-02-18T22:33:13.549Z,13.03
2019-02-18T22:36:05.094Z,12.70
2019-02-18T22:38:53.569Z,12.67
2019-02-18T22:41:41.819Z,13.23
2019-02-18T22:44:42.122Z,13.07
2019-02-18T22:47:30.150Z,12.80
2019-02-18T22:50:18.465Z,13.00
2019-02-18T22:53:07.999Z,12.90
2019-02-18T22:55:56.961Z,13.30
2019-02-18T22:58:45.465Z,13.17
2019-02-18T23:01:33.088Z,13.20
2019-02-18T23:04:22.094Z,13.23
2019-02-18T23:07:09.789Z,13.47
2019-02-18T23:09:57.358Z,13.13
2019-02-18T23:12:45.467Z,12.97
2019-02-18T23:15:33.321Z,12.97
2019-02-18T23:18:21.243Z,13.60
2019-02-18T23:21:09.969Z,13.23
2019-02-18T23:23:58.533Z,12.70
2019-02-18T23:26:46.773Z,13.30
2019-02-18T23:29:34.847Z,13.27
2019-02-18T23:32:22.675Z,13.27
2019-02-18T23:35:10.752Z,13.10
2019-02-18T23:37:58.862Z,13.07
2019-02-18T23:40:47.721Z,12.53
2019-02-18T23:43:35.393Z,12.67
2019-02-18T23:46:23.492Z,13.20
2019-02-18T23:49:11.628Z,13.70
2019-02-18T23:52:00.647Z,12.70
2019-02-18T23:54:48.748Z,13.83
2019-02-18T23:57:38.737Z,12.60
